createdAt,value
2016-12-05T00:01:01.261Z,1023.04
2016-12-05T00:02:12.439Z,1023.07
2016-12-05T00:03:23.422Z,1023.04
2016-12-05T00:04:34.601Z,1023.01
2016-12-05T00:05:45.604Z,1023.05
2016-12-05T00:06:56.837Z,1023.03
2016-12-05T00:08:07.824Z,1023.02
2016-12-05T00:09:18.797Z,1022.96
2016-12-05T00:10:29.772Z,1022.97
2016-12-05T00:11:40.754Z,1022.96
2016-12-05T00:12:51.983Z,1022.97
2016-12-05T00:14:03.199Z,1022.97
2016-12-05T00:15:14.173Z,1022.98
2016-12-05T00:16:25.150Z,1022.94
2016-12-05T00:17:36.130Z,1022.91
2016-12-05T00:18:47.157Z,1022.9
2016-12-05T00:19:58.132Z,1022.92
2016-12-05T00:21:09.129Z,1022.93
2016-12-05T00:22:20.313Z,1022.95
2016-12-05T00:23:31.294Z,1022.92
2016-12-05T00:24:42.327Z,1022.97
2016-12-05T00:25:53.305Z,1023
2016-12-05T00:27:04.493Z,1022.98
2016-12-05T00:28:15.680Z,1022.94
2016-12-05T00:29:26.657Z,1022.91
2016-12-05T00:30:37.693Z,1022.96
2016-12-05T00:31:48.671Z,1022.91
2016-12-05T00:32:59.647Z,1022.9
2016-12-05T00:34:10.631Z,1022.94
2016-12-05T00:35:21.625Z,1022.91
2016-12-05T00:36:32.856Z,1022.94
2016-12-05T00:37:43.831Z,1022.9
2016-12-05T00:38:54.812Z,1022.88
2016-12-05T00:40:05.792Z,1022.89
2016-12-05T00:41:16.768Z,1022.85
2016-12-05T00:42:27.800Z,1022.85
2016-12-05T00:43:38.994Z,1022.86
2016-12-05T00:44:50.005Z,1022.88
2016-12-05T00:46:00.984Z,1022.86
2016-12-05T00:47:12.161Z,1022.87
2016-12-05T00:48:23.197Z,1022.84
2016-12-05T00:49:34.173Z,1022.84
2016-12-05T00:50:45.154Z,1022.89
2016-12-05T00:51:56.139Z,1022.87
2016-12-05T00:53:07.125Z,1022.87
2016-12-05T00:54:18.146Z,1022.85
2016-12-05T00:55:29.339Z,1022.86
2016-12-05T00:56:40.316Z,1022.83
2016-12-05T00:57:51.498Z,1022.88
2016-12-05T00:59:02.680Z,1022.82
2016-12-05T01:00:13.704Z,1022.85
2016-12-05T01:01:24.684Z,1022.84
2016-12-05T01:02:35.732Z,1022.9
2016-12-05T01:03:46.701Z,1022.85
2016-12-05T01:04:57.677Z,1022.83
2016-12-05T01:06:08.903Z,1022.84
2016-12-05T01:07:19.880Z,1022.81
2016-12-05T01:08:31.061Z,1022.8
2016-12-05T01:09:42.042Z,1022.81
2016-12-05T01:10:53.223Z,1022.82
2016-12-05T01:12:04.252Z,1022.77
2016-12-05T01:13:15.245Z,1022.78
2016-12-05T01:14:26.235Z,1022.77
2016-12-05T01:15:37.413Z,1022.8
2016-12-05T01:16:48.396Z,1022.77
2016-12-05T01:17:59.420Z,1022.72
2016-12-05T01:19:10.403Z,1022.74
2016-12-05T01:20:21.383Z,1022.72
2016-12-05T01:21:32.359Z,1022.72
2016-12-05T01:22:43.338Z,1022.73
2016-12-05T01:23:54.358Z,1022.68
2016-12-05T01:25:05.334Z,1022.68
2016-12-05T01:26:16.315Z,1022.69
2016-12-05T01:27:27.294Z,1022.67
2016-12-05T01:28:38.285Z,1022.7
2016-12-05T01:29:49.313Z,1022.71
2016-12-05T01:31:00.290Z,1022.71
2016-12-05T01:32:11.271Z,1022.69
2016-12-05T01:33:22.483Z,1022.7
2016-12-05T01:34:33.462Z,1022.71
2016-12-05T01:35:44.496Z,1022.73
2016-12-05T01:36:55.684Z,1022.68
2016-12-05T01:38:06.662Z,1022.68
2016-12-05T01:39:17.646Z,1022.67
2016-12-05T01:40:28.626Z,1022.65
2016-12-05T01:41:39.660Z,1022.63
2016-12-05T01:42:50.640Z,1022.67
2016-12-05T01:44:01.622Z,1022.65
2016-12-05T01:45:12.601Z,1022.69
2016-12-05T01:46:23.581Z,1022.68
2016-12-05T01:47:34.640Z,1022.69
2016-12-05T01:48:45.618Z,1022.69
2016-12-05T01:49:56.609Z,1022.68
2016-12-05T01:51:07.587Z,1022.71
2016-12-05T01:52:18.574Z,1022.75
2016-12-05T01:53:29.624Z,1022.72
2016-12-05T01:54:40.809Z,1022.74
2016-12-05T01:55:51.779Z,1022.74
2016-12-05T01:57:02.959Z,1022.73
2016-12-05T01:58:13.938Z,1022.71
2016-12-05T01:59:24.973Z,1022.7
2016-12-05T02:00:35.955Z,1022.75
2016-12-05T02:01:46.940Z,1022.71
2016-12-05T02:02:57.925Z,1022.68
2016-12-05T02:04:08.901Z,1022.7
2016-12-05T02:05:20.136Z,1022.68
2016-12-05T02:06:31.124Z,1022.65
2016-12-05T02:07:42.109Z,1022.63
2016-12-05T02:08:53.324Z,1022.6
2016-12-05T02:10:04.502Z,1022.62
2016-12-05T02:11:15.531Z,1022.61
2016-12-05T02:12:26.509Z,1022.58
2016-12-05T02:13:37.480Z,1022.54
2016-12-05T02:14:48.471Z,1022.59
2016-12-05T02:15:59.446Z,1022.55
2016-12-05T02:17:10.678Z,1022.54
2016-12-05T02:18:21.676Z,1022.55
2016-12-05T02:19:32.654Z,1022.5
2016-12-05T02:20:43.632Z,1022.49
2016-12-05T02:21:54.612Z,1022.52
2016-12-05T02:23:05.849Z,1022.51
2016-12-05T02:24:16.827Z,1022.5
2016-12-05T02:25:27.805Z,1022.5
2016-12-05T02:26:38.790Z,1022.52
2016-12-05T02:27:49.770Z,1022.52
2016-12-05T02:29:00.803Z,1022.51
2016-12-05T02:30:11.788Z,1022.52
2016-12-05T02:31:22.758Z,1022.55
2016-12-05T02:32:33.742Z,1022.53
2016-12-05T02:33:44.722Z,1022.52
2016-12-05T02:34:55.751Z,1022.48
2016-12-05T02:36:06.725Z,1022.5
2016-12-05T02:37:17.704Z,1022.49
2016-12-05T02:38:28.889Z,1022.48
2016-12-05T02:39:39.871Z,1022.47
2016-12-05T02:40:50.892Z,1022.47
2016-12-05T02:42:01.872Z,1022.48
2016-12-05T02:43:13.050Z,1022.47
2016-12-05T02:44:24.430Z,1022.47
2016-12-05T02:45:35.406Z,1022.44
2016-12-05T02:46:46.438Z,1022.49
2016-12-05T02:47:57.450Z,1022.46
2016-12-05T02:49:08.636Z,1022.46
2016-12-05T02:50:19.824Z,1022.47
2016-12-05T02:51:30.804Z,1022.48
2016-12-05T02:52:42.046Z,1022.44
2016-12-05T02:53:53.029Z,1022.45
2016-12-05T02:55:04.227Z,1022.44
2016-12-05T02:56:15.207Z,1022.42
2016-12-05T02:57:26.184Z,1022.41
2016-12-05T02:58:37.216Z,1022.4
2016-12-05T02:59:48.197Z,1022.38
2016-12-05T03:00:59.177Z,1022.34
2016-12-05T03:02:10.164Z,1022.33
2016-12-05T03:03:21.140Z,1022.33
2016-12-05T03:04:32.167Z,1022.35
2016-12-05T03:05:43.152Z,1022.4
2016-12-05T03:06:54.133Z,1022.36
2016-12-05T03:08:05.322Z,1022.39
2016-12-05T03:09:16.301Z,1022.4
2016-12-05T03:10:27.330Z,1022.41
2016-12-05T03:11:38.304Z,1022.42
2016-12-05T03:12:49.286Z,1022.41
2016-12-05T03:14:00.271Z,1022.41
2016-12-05T03:15:11.245Z,1022.4
2016-12-05T03:16:22.263Z,1022.45
2016-12-05T03:17:33.250Z,1022.42
2016-12-05T03:18:44.231Z,1022.41
2016-12-05T03:19:55.212Z,1022.41
2016-12-05T03:21:06.196Z,1022.43
2016-12-05T03:22:17.422Z,1022.42
2016-12-05T03:23:28.408Z,1022.45
2016-12-05T03:24:39.395Z,1022.41
2016-12-05T03:25:50.378Z,1022.42
2016-12-05T03:27:01.362Z,1022.39
2016-12-05T03:28:12.396Z,1022.43
2016-12-05T03:29:23.384Z,1022.41
2016-12-05T03:30:34.361Z,1022.37
2016-12-05T03:31:45.340Z,1022.4
2016-12-05T03:32:56.318Z,1022.41
2016-12-05T03:34:07.576Z,1022.4
2016-12-05T03:35:18.554Z,1022.37
2016-12-05T03:36:29.538Z,1022.36
2016-12-05T03:37:40.513Z,1022.34
2016-12-05T03:38:51.496Z,1022.27
2016-12-05T03:40:02.727Z,1022.25
2016-12-05T03:41:13.907Z,1022.26
2016-12-05T03:42:25.089Z,1022.23
2016-12-05T03:43:36.264Z,1022.27
2016-12-05T03:44:47.240Z,1022.22
2016-12-05T03:45:58.269Z,1022.22
2016-12-05T03:47:09.279Z,1022.2
2016-12-05T03:48:20.259Z,1022.2
2016-12-05T03:49:31.433Z,1022.16
2016-12-05T03:50:42.616Z,1022.16
2016-12-05T03:51:53.655Z,1022.15
2016-12-05T03:53:04.641Z,1022.15
2016-12-05T03:54:15.625Z,1022.13
2016-12-05T03:55:26.604Z,1022.14
2016-12-05T03:56:37.580Z,1022.12
2016-12-05T03:57:48.815Z,1022.11
2016-12-05T03:58:59.996Z,1022.09
2016-12-05T04:00:10.971Z,1022.04
2016-12-05T04:01:21.945Z,1022
2016-12-05T04:02:32.920Z,1022.03
2016-12-05T04:03:43.953Z,1021.97
2016-12-05T04:04:54.934Z,1022
2016-12-05T04:06:05.917Z,1022
2016-12-05T04:07:16.920Z,1021.97
2016-12-05T04:08:27.903Z,1022
2016-12-05T04:09:38.930Z,1022.02
2016-12-05T04:10:49.913Z,1021.96
2016-12-05T04:12:00.890Z,1021.96
2016-12-05T04:13:11.875Z,1021.95
2016-12-05T04:14:22.849Z,1021.95
2016-12-05T04:15:33.883Z,1021.89
2016-12-05T04:16:44.861Z,1021.92
2016-12-05T04:17:56.033Z,1021.94
2016-12-05T04:19:07.017Z,1021.93
2016-12-05T04:20:18.004Z,1021.87
2016-12-05T04:21:29.036Z,1021.87
2016-12-05T04:22:40.022Z,1021.8
2016-12-05T04:23:51.004Z,1021.86
2016-12-05T04:25:01.983Z,1021.85
2016-12-05T04:26:12.966Z,1021.8
2016-12-05T04:27:24.193Z,1021.78
2016-12-05T04:28:35.177Z,1021.82
2016-12-05T04:29:46.157Z,1021.79
2016-12-05T04:30:57.131Z,1021.81
2016-12-05T04:32:08.121Z,1021.81
2016-12-05T04:33:19.355Z,1021.84
2016-12-05T04:34:30.337Z,1021.79
2016-12-05T04:35:41.320Z,1021.79
2016-12-05T04:36:52.305Z,1021.83
2016-12-05T04:38:03.275Z,1021.82
2016-12-05T04:39:14.298Z,1021.85
2016-12-05T04:40:25.276Z,1021.82
2016-12-05T04:41:36.252Z,1021.87
2016-12-05T04:42:47.430Z,1021.83
2016-12-05T04:43:58.608Z,1021.89
2016-12-05T04:45:09.643Z,1021.9
2016-12-05T04:46:20.624Z,1021.84
2016-12-05T04:47:31.608Z,1021.86
2016-12-05T04:48:42.588Z,1021.85
2016-12-05T04:49:53.797Z,1021.85
2016-12-05T04:51:05.026Z,1021.8
2016-12-05T04:52:16.002Z,1021.84
2016-12-05T04:53:26.977Z,1021.84
2016-12-05T04:54:38.160Z,1021.85
2016-12-05T04:55:49.170Z,1021.88
2016-12-05T04:57:00.394Z,1021.88
2016-12-05T04:58:11.375Z,1021.88
2016-12-05T04:59:22.347Z,1021.93
2016-12-05T05:00:33.326Z,1021.91
2016-12-05T05:01:44.499Z,1021.95
2016-12-05T05:02:55.528Z,1021.94
2016-12-05T05:04:06.512Z,1021.94
2016-12-05T05:05:17.484Z,1021.92
2016-12-05T05:06:28.458Z,1021.9
2016-12-05T05:07:39.636Z,1021.93
2016-12-05T05:08:50.659Z,1021.96
2016-12-05T05:10:01.846Z,1021.95
2016-12-05T05:11:12.831Z,1021.97
2016-12-05T05:12:23.803Z,1022
2016-12-05T05:13:34.778Z,1021.95
2016-12-05T05:14:45.840Z,1021.99
2016-12-05T05:15:56.820Z,1022
2016-12-05T05:17:08.004Z,1021.99
2016-12-05T05:18:18.994Z,1021.99
2016-12-05T05:19:30.002Z,1022
2016-12-05T05:20:41.032Z,1022.03
2016-12-05T05:21:52.002Z,1022.03
2016-12-05T05:23:03.185Z,1022.03
2016-12-05T05:24:14.173Z,1022
2016-12-05T05:25:25.548Z,1022.04
2016-12-05T05:26:36.604Z,1022.03
2016-12-05T05:27:47.823Z,1022.1
2016-12-05T05:28:58.797Z,1022.05
2016-12-05T05:30:09.766Z,1022.07
2016-12-05T05:31:20.747Z,1022.06
2016-12-05T05:32:31.780Z,1022.03
2016-12-05T05:33:42.763Z,1022.05
2016-12-05T05:34:53.751Z,1022.04
2016-12-05T05:36:04.736Z,1022.08
2016-12-05T05:37:15.714Z,1022.05
2016-12-05T05:38:26.742Z,1022.07
2016-12-05T05:39:37.925Z,1022.02
2016-12-05T05:40:48.907Z,1021.99
2016-12-05T05:42:00.081Z,1021.99
2016-12-05T05:43:11.253Z,1021.96
2016-12-05T05:44:22.285Z,1021.93
2016-12-05T05:45:33.264Z,1021.91
2016-12-05T05:46:44.243Z,1021.93
2016-12-05T05:47:55.228Z,1021.9
2016-12-05T05:49:06.211Z,1021.89
2016-12-05T05:50:17.438Z,1021.82
2016-12-05T05:51:28.415Z,1021.88
2016-12-05T05:52:39.791Z,1021.87
2016-12-05T05:53:50.979Z,1021.87
2016-12-05T05:55:01.982Z,1021.85
2016-12-05T05:56:13.010Z,1021.86
2016-12-05T05:57:24.002Z,1021.87
2016-12-05T05:58:35.184Z,1021.87
2016-12-05T05:59:46.370Z,1021.89
2016-12-05T06:00:57.347Z,1021.89
2016-12-05T06:02:08.375Z,1021.89
2016-12-05T06:03:19.553Z,1021.92
2016-12-05T06:04:30.543Z,1021.94
2016-12-05T06:05:41.513Z,1021.92
2016-12-05T06:06:52.499Z,1021.94
2016-12-05T06:08:03.761Z,1021.9
2016-12-05T06:09:14.730Z,1021.95
2016-12-05T06:10:25.732Z,1021.93
2016-12-05T06:11:36.913Z,1021.95
2016-12-05T06:12:48.090Z,1021.91
2016-12-05T06:13:59.328Z,1021.94
2016-12-05T06:15:10.312Z,1021.92
2016-12-05T06:16:21.290Z,1021.88
2016-12-05T06:17:32.265Z,1021.92
2016-12-05T06:18:43.250Z,1021.92
2016-12-05T06:19:54.274Z,1021.86
2016-12-05T06:21:05.249Z,1021.89
2016-12-05T06:22:16.235Z,1021.86
2016-12-05T06:23:27.227Z,1021.89
2016-12-05T06:24:38.411Z,1021.91
2016-12-05T06:25:49.439Z,1021.91
2016-12-05T06:27:00.625Z,1021.97
2016-12-05T06:28:11.598Z,1021.98
2016-12-05T06:29:22.780Z,1022.01
2016-12-05T06:30:33.768Z,1021.96
2016-12-05T06:31:44.796Z,1021.97
2016-12-05T06:32:55.972Z,1021.96
2016-12-05T06:34:06.954Z,1021.99
2016-12-05T06:35:17.935Z,1022
2016-12-05T06:36:28.916Z,1021.99
2016-12-05T06:37:39.940Z,1022.01
2016-12-05T06:38:50.941Z,1022.04
2016-12-05T06:40:01.918Z,1022.04
2016-12-05T06:41:13.103Z,1022.05
2016-12-05T06:42:24.080Z,1022.05
2016-12-05T06:43:35.309Z,1022.05
2016-12-05T06:44:46.294Z,1022.06
2016-12-05T06:45:57.277Z,1022.06
2016-12-05T06:47:08.258Z,1022.1
2016-12-05T06:48:19.241Z,1022.09
2016-12-05T06:49:30.261Z,1022.08
2016-12-05T06:50:41.236Z,1022.14
2016-12-05T06:51:52.204Z,1022.11
2016-12-05T06:53:03.590Z,1022.11
2016-12-05T06:54:14.571Z,1022.13
2016-12-05T06:55:25.799Z,1022.14
2016-12-05T06:56:36.974Z,1022.17
2016-12-05T06:57:47.949Z,1022.13
2016-12-05T06:58:58.919Z,1022.16
2016-12-05T07:00:11.704Z,1022.17
2016-12-05T07:01:22.735Z,1022.17
2016-12-05T07:02:33.713Z,1022.14
2016-12-05T07:03:44.685Z,1022.13
2016-12-05T07:04:55.904Z,1022.14
2016-12-05T07:06:07.086Z,1022.1
2016-12-05T07:07:18.313Z,1022.17
2016-12-05T07:08:29.296Z,1022.13
2016-12-05T07:09:40.265Z,1022.13
2016-12-05T07:10:51.247Z,1022.12
2016-12-05T07:12:02.229Z,1022.15
2016-12-05T07:13:13.251Z,1022.1
2016-12-05T07:14:24.226Z,1022.09
2016-12-05T07:15:35.609Z,1022.12
2016-12-05T07:16:46.583Z,1022.11
2016-12-05T07:17:57.555Z,1022.11
2016-12-05T07:19:08.585Z,1022.13
2016-12-05T07:20:19.565Z,1022.11
2016-12-05T07:21:30.546Z,1022.13
2016-12-05T07:22:41.532Z,1022.12
2016-12-05T07:23:52.504Z,1022.16
2016-12-05T07:25:03.520Z,1022.14
2016-12-05T07:26:14.488Z,1022.17
2016-12-05T07:27:25.464Z,1022.13
2016-12-05T07:28:36.439Z,1022.11
2016-12-05T07:29:47.618Z,1022.11
2016-12-05T07:30:58.852Z,1022.07
2016-12-05T07:32:09.836Z,1022.06
2016-12-05T07:33:20.821Z,1022.05
2016-12-05T07:34:31.805Z,1022.06
2016-12-05T07:35:42.788Z,1022.08
2016-12-05T07:36:53.817Z,1022.08
2016-12-05T07:38:04.792Z,1022.07
2016-12-05T07:39:15.766Z,1022.11
2016-12-05T07:40:27.146Z,1022.1
2016-12-05T07:41:38.120Z,1022.1
2016-12-05T07:42:49.357Z,1022.12
2016-12-05T07:44:00.332Z,1022.08
2016-12-05T07:45:11.316Z,1022.13
2016-12-05T07:46:22.289Z,1022.17
2016-12-05T07:47:33.459Z,1022.11
2016-12-05T07:48:44.485Z,1022.12
2016-12-05T07:49:55.469Z,1022.13
2016-12-05T07:51:06.459Z,1022.15
2016-12-05T07:52:17.438Z,1022.21
2016-12-05T07:53:28.415Z,1022.23
2016-12-05T07:54:39.451Z,1022.19
2016-12-05T07:55:50.435Z,1022.24
2016-12-05T07:57:01.417Z,1022.22
2016-12-05T07:58:12.414Z,1022.22
2016-12-05T07:59:23.392Z,1022.22
2016-12-05T08:00:34.617Z,1022.26
2016-12-05T08:01:45.609Z,1022.28
2016-12-05T08:02:56.583Z,1022.28
2016-12-05T08:04:07.558Z,1022.29
2016-12-05T08:05:18.542Z,1022.31
2016-12-05T08:06:29.567Z,1022.35
2016-12-05T08:07:40.571Z,1022.36
2016-12-05T08:08:51.751Z,1022.38
2016-12-05T08:10:02.723Z,1022.43
2016-12-05T08:11:13.704Z,1022.35
2016-12-05T08:12:24.726Z,1022.4
2016-12-05T08:13:35.708Z,1022.37
2016-12-05T08:14:46.689Z,1022.35
2016-12-05T08:15:57.665Z,1022.36
2016-12-05T08:17:08.635Z,1022.37
2016-12-05T08:18:19.668Z,1022.36
2016-12-05T08:19:30.647Z,1022.36
2016-12-05T08:20:41.622Z,1022.37
2016-12-05T08:21:52.605Z,1022.37
2016-12-05T08:23:03.589Z,1022.37
2016-12-05T08:24:14.829Z,1022.35
2016-12-05T08:25:25.813Z,1022.33
2016-12-05T08:26:36.994Z,1022.38
2016-12-05T08:27:48.185Z,1022.36
2016-12-05T08:28:59.170Z,1022.33
2016-12-05T08:30:10.207Z,1022.41
2016-12-05T08:31:21.188Z,1022.39
2016-12-05T08:32:32.166Z,1022.35
2016-12-05T08:33:43.145Z,1022.44
2016-12-05T08:34:54.133Z,1022.38
2016-12-05T08:36:05.172Z,1022.35
2016-12-05T08:37:16.357Z,1022.39
2016-12-05T08:38:27.336Z,1022.41
2016-12-05T08:39:38.318Z,1022.42
2016-12-05T08:40:49.306Z,1022.44
2016-12-05T08:42:00.336Z,1022.47
2016-12-05T08:43:11.321Z,1022.47
2016-12-05T08:44:22.311Z,1022.47
2016-12-05T08:45:33.299Z,1022.46
2016-12-05T08:46:44.279Z,1022.43
2016-12-05T08:47:55.514Z,1022.41
2016-12-05T08:49:06.506Z,1022.46
2016-12-05T08:50:17.488Z,1022.44
2016-12-05T08:51:28.484Z,1022.47
2016-12-05T08:52:39.475Z,1022.45
2016-12-05T08:53:50.510Z,1022.48
2016-12-05T08:55:01.498Z,1022.47
2016-12-05T08:56:12.478Z,1022.46
2016-12-05T08:57:23.470Z,1022.53
2016-12-05T08:58:34.472Z,1022.54
2016-12-05T08:59:45.510Z,1022.56
2016-12-05T09:00:56.489Z,1022.52
2016-12-05T09:02:07.480Z,1022.46
2016-12-05T09:03:18.464Z,1022.5
2016-12-05T09:04:29.452Z,1022.52
2016-12-05T09:05:40.485Z,1022.54
2016-12-05T09:06:51.470Z,1022.49
2016-12-05T09:08:02.458Z,1022.51
2016-12-05T09:09:13.445Z,1022.54
2016-12-05T09:10:24.435Z,1022.49
2016-12-05T09:11:35.481Z,1022.45
2016-12-05T09:12:46.474Z,1022.45
2016-12-05T09:13:57.660Z,1022.47
2016-12-05T09:15:08.651Z,1022.48
2016-12-05T09:16:19.838Z,1022.49
2016-12-05T09:17:30.869Z,1022.52
2016-12-05T09:18:41.863Z,1022.48
2016-12-05T09:19:52.858Z,1022.54
2016-12-05T09:21:03.848Z,1022.55
2016-12-05T09:22:15.249Z,1022.53
2016-12-05T09:23:26.500Z,1022.54
2016-12-05T09:24:37.496Z,1022.53
2016-12-05T09:25:48.691Z,1022.55
2016-12-05T09:26:59.882Z,1022.53
2016-12-05T09:28:10.909Z,1022.57
2016-12-05T09:29:21.981Z,1022.58
2016-12-05T09:30:32.972Z,1022.57
2016-12-05T09:31:44.161Z,1022.6
2016-12-05T09:32:55.360Z,1022.58
2016-12-05T09:34:06.350Z,1022.55
2016-12-05T09:35:17.401Z,1022.58
2016-12-05T09:36:28.606Z,1022.63
2016-12-05T09:37:39.605Z,1022.66
2016-12-05T09:38:50.605Z,1022.64
2016-12-05T09:40:01.602Z,1022.68
2016-12-05T09:41:12.649Z,1022.66
2016-12-05T09:42:23.642Z,1022.68
2016-12-05T09:43:34.635Z,1022.66
2016-12-05T09:44:45.637Z,1022.66
2016-12-05T09:45:57.042Z,1022.68
2016-12-05T09:47:08.339Z,1022.64
2016-12-05T09:48:19.357Z,1022.67
2016-12-05T09:49:30.384Z,1022.69
2016-12-05T09:50:41.383Z,1022.66
2016-12-05T09:51:52.381Z,1022.69
2016-12-05T09:53:03.435Z,1022.67
2016-12-05T09:54:14.646Z,1022.66
2016-12-05T09:55:25.645Z,1022.62
2016-12-05T09:56:36.635Z,1022.58
2016-12-05T09:57:47.637Z,1022.62
2016-12-05T09:58:58.703Z,1022.59
2016-12-05T10:00:09.707Z,1022.58
2016-12-05T10:01:20.710Z,1022.56
2016-12-05T10:02:31.916Z,1022.59
2016-12-05T10:03:42.912Z,1022.55
2016-12-05T10:04:54.162Z,1022.54
2016-12-05T10:06:05.160Z,1022.54
2016-12-05T10:07:16.163Z,1022.49
2016-12-05T10:08:27.163Z,1022.48
2016-12-05T10:09:38.164Z,1022.47
2016-12-05T10:10:49.213Z,1022.47
2016-12-05T10:12:00.209Z,1022.51
2016-12-05T10:13:11.414Z,1022.49
2016-12-05T10:14:22.403Z,1022.51
2016-12-05T10:15:33.414Z,1022.51
2016-12-05T10:16:44.668Z,1022.5
2016-12-05T10:17:55.676Z,1022.57
2016-12-05T10:19:06.678Z,1022.53
2016-12-05T10:20:17.701Z,1022.49
2016-12-05T10:21:28.708Z,1022.47
2016-12-05T10:22:39.764Z,1022.45
2016-12-05T10:23:50.769Z,1022.46
2016-12-05T10:25:01.778Z,1022.44
2016-12-05T10:26:12.779Z,1022.46
2016-12-05T10:27:23.780Z,1022.45
2016-12-05T10:28:34.832Z,1022.45
2016-12-05T10:29:45.829Z,1022.43
2016-12-05T10:30:57.032Z,1022.42
2016-12-05T10:32:08.233Z,1022.41
2016-12-05T10:33:19.233Z,1022.37
2016-12-05T10:34:30.474Z,1022.38
2016-12-05T10:35:41.465Z,1022.39
2016-12-05T10:36:52.463Z,1022.39
2016-12-05T10:38:03.663Z,1022.39
2016-12-05T10:39:14.672Z,1022.39
2016-12-05T10:40:25.717Z,1022.4
2016-12-05T10:41:36.725Z,1022.41
2016-12-05T10:42:47.728Z,1022.4
2016-12-05T10:43:58.737Z,1022.39
2016-12-05T10:45:09.738Z,1022.38
2016-12-05T10:46:20.788Z,1022.41
2016-12-05T10:47:31.782Z,1022.42
2016-12-05T10:48:42.809Z,1022.4
2016-12-05T10:49:53.812Z,1022.42
2016-12-05T10:51:04.803Z,1022.46
2016-12-05T10:52:15.870Z,1022.44
2016-12-05T10:53:26.871Z,1022.46
2016-12-05T10:54:37.885Z,1022.45
2016-12-05T10:55:48.898Z,1022.41
2016-12-05T10:57:00.117Z,1022.42
2016-12-05T10:58:11.363Z,1022.4
2016-12-05T10:59:22.364Z,1022.34
2016-12-05T11:00:33.359Z,1022.35
2016-12-05T11:01:44.362Z,1022.34
2016-12-05T11:02:55.359Z,1022.33
2016-12-05T11:04:06.406Z,1022.34
2016-12-05T11:05:17.431Z,1022.35
2016-12-05T11:06:28.646Z,1022.32
2016-12-05T11:07:39.674Z,1022.33
2016-12-05T11:08:50.674Z,1022.33
2016-12-05T11:10:01.722Z,1022.3
2016-12-05T11:11:12.771Z,1022.3
2016-12-05T11:12:23.766Z,1022.29
2016-12-05T11:13:34.757Z,1022.27
2016-12-05T11:14:45.750Z,1022.29
2016-12-05T11:15:56.790Z,1022.27
2016-12-05T11:17:07.988Z,1022.29
2016-12-05T11:18:19.191Z,1022.33
2016-12-05T11:19:30.213Z,1022.29
2016-12-05T11:20:41.230Z,1022.34
2016-12-05T11:21:52.668Z,1022.3
2016-12-05T11:23:03.858Z,1022.28
2016-12-05T11:24:14.847Z,1022.25
2016-12-05T11:25:25.852Z,1022.22
2016-12-05T11:26:37.249Z,1022.2
2016-12-05T11:27:48.289Z,1022.21
2016-12-05T11:28:59.289Z,1022.23
2016-12-05T11:30:10.341Z,1022.24
2016-12-05T11:31:21.642Z,1022.21
2016-12-05T11:32:32.825Z,1022.24
2016-12-05T11:33:43.875Z,1022.2
2016-12-05T11:34:54.856Z,1022.2
2016-12-05T11:36:05.858Z,1022.23
2016-12-05T11:37:16.848Z,1022.22
2016-12-05T11:38:27.850Z,1022.22
2016-12-05T11:39:38.919Z,1022.18
2016-12-05T11:40:49.911Z,1022.21
2016-12-05T11:42:00.912Z,1022.24
2016-12-05T11:43:11.909Z,1022.25
2016-12-05T11:44:22.894Z,1022.25
2016-12-05T11:45:33.932Z,1022.22
2016-12-05T11:46:44.919Z,1022.21
2016-12-05T11:47:56.114Z,1022.21
2016-12-05T11:49:07.110Z,1022.16
2016-12-05T11:50:18.103Z,1022.22
2016-12-05T11:51:29.372Z,1022.23
2016-12-05T11:52:40.367Z,1022.22
2016-12-05T11:53:51.365Z,1022.21
2016-12-05T11:55:02.350Z,1022.17
2016-12-05T11:56:13.543Z,1022.18
2016-12-05T11:57:24.588Z,1022.15
2016-12-05T11:58:35.580Z,1022.17
2016-12-05T11:59:46.775Z,1022.18
2016-12-05T12:00:57.964Z,1022.21
2016-12-05T12:02:08.955Z,1022.15
2016-12-05T12:03:19.996Z,1022.13
2016-12-05T12:04:30.990Z,1022.08
2016-12-05T12:05:42.183Z,1022.07
2016-12-05T12:06:53.180Z,1022.04
2016-12-05T12:08:04.171Z,1022.01
2016-12-05T12:09:15.207Z,1022.03
2016-12-05T12:10:26.194Z,1022
2016-12-05T12:11:37.384Z,1022.03
2016-12-05T12:12:48.368Z,1022
2016-12-05T12:13:59.359Z,1021.97
2016-12-05T12:15:10.410Z,1021.98
2016-12-05T12:16:21.604Z,1021.95
2016-12-05T12:17:32.586Z,1021.93
2016-12-05T12:18:43.612Z,1021.92
2016-12-05T12:19:55.005Z,1021.93
2016-12-05T12:21:06.245Z,1021.95
2016-12-05T12:22:17.636Z,1021.94
2016-12-05T12:23:28.825Z,1021.92
2016-12-05T12:24:40.004Z,1021.88
2016-12-05T12:25:50.993Z,1021.94
2016-12-05T12:27:02.035Z,1021.88
2016-12-05T12:28:13.228Z,1021.9
2016-12-05T12:29:24.418Z,1021.86
2016-12-05T12:30:35.402Z,1021.85
2016-12-05T12:31:46.384Z,1021.85
2016-12-05T12:32:57.419Z,1021.82
2016-12-05T12:34:08.414Z,1021.85
2016-12-05T12:35:19.405Z,1021.87
2016-12-05T12:36:30.400Z,1021.86
2016-12-05T12:37:41.396Z,1021.87
2016-12-05T12:38:52.439Z,1021.86
2016-12-05T12:40:03.438Z,1021.83
2016-12-05T12:41:14.433Z,1021.79
2016-12-05T12:42:25.442Z,1021.8
2016-12-05T12:43:36.627Z,1021.75
2016-12-05T12:44:47.672Z,1021.76
2016-12-05T12:45:58.870Z,1021.7
2016-12-05T12:47:09.864Z,1021.71
2016-12-05T12:48:20.841Z,1021.7
2016-12-05T12:49:31.836Z,1021.66
2016-12-05T12:50:43.075Z,1021.69
2016-12-05T12:51:54.270Z,1021.7
2016-12-05T12:53:05.286Z,1021.67
2016-12-05T12:54:16.273Z,1021.68
2016-12-05T12:55:27.264Z,1021.7
2016-12-05T12:56:38.304Z,1021.64
2016-12-05T12:57:49.498Z,1021.7
2016-12-05T12:59:00.492Z,1021.71
2016-12-05T13:00:11.483Z,1021.7
2016-12-05T13:01:22.507Z,1021.71
2016-12-05T13:02:33.548Z,1021.66
2016-12-05T13:03:44.537Z,1021.66
2016-12-05T13:04:55.759Z,1021.69
2016-12-05T13:06:06.777Z,1021.72
2016-12-05T13:07:17.760Z,1021.69
2016-12-05T13:08:28.798Z,1021.72
2016-12-05T13:09:39.778Z,1021.7
2016-12-05T13:10:50.785Z,1021.71
2016-12-05T13:12:01.765Z,1021.72
2016-12-05T13:13:12.960Z,1021.7
2016-12-05T13:14:23.993Z,1021.69
2016-12-05T13:15:34.977Z,1021.68
2016-12-05T13:16:45.983Z,1021.64
2016-12-05T13:17:56.970Z,1021.67
2016-12-05T13:19:07.957Z,1021.64
2016-12-05T13:20:18.996Z,1021.66
2016-12-05T13:21:29.978Z,1021.66
2016-12-05T13:22:40.978Z,1021.67
2016-12-05T13:23:51.964Z,1021.68
2016-12-05T13:25:02.950Z,1021.67
2016-12-05T13:26:13.994Z,1021.65
2016-12-05T13:27:24.999Z,1021.65
2016-12-05T13:28:36.183Z,1021.61
2016-12-05T13:29:47.189Z,1021.62
2016-12-05T13:30:58.172Z,1021.6
2016-12-05T13:32:09.207Z,1021.6
2016-12-05T13:33:20.195Z,1021.63
2016-12-05T13:34:31.184Z,1021.62
2016-12-05T13:35:42.366Z,1021.61
2016-12-05T13:36:53.342Z,1021.6
2016-12-05T13:38:04.388Z,1021.62
2016-12-05T13:39:15.372Z,1021.64
2016-12-05T13:40:26.559Z,1021.61
2016-12-05T13:41:37.576Z,1021.61
2016-12-05T13:42:48.569Z,1021.61
2016-12-05T13:43:59.618Z,1021.62
2016-12-05T13:45:10.603Z,1021.64
2016-12-05T13:46:21.583Z,1021.61
2016-12-05T13:47:32.570Z,1021.65
2016-12-05T13:48:43.556Z,1021.65
2016-12-05T13:49:54.594Z,1021.63
2016-12-05T13:51:05.573Z,1021.65
2016-12-05T13:52:16.562Z,1021.63
2016-12-05T13:53:27.580Z,1021.59
2016-12-05T13:54:38.567Z,1021.61
2016-12-05T13:55:49.607Z,1021.62
2016-12-05T13:57:00.592Z,1021.62
2016-12-05T13:58:11.577Z,1021.63
2016-12-05T13:59:22.599Z,1021.66
2016-12-05T14:00:33.582Z,1021.66
2016-12-05T14:01:44.618Z,1021.69
2016-12-05T14:02:55.606Z,1021.72
2016-12-05T14:04:06.589Z,1021.73
2016-12-05T14:05:17.782Z,1021.73
2016-12-05T14:06:28.774Z,1021.68
2016-12-05T14:07:39.804Z,1021.71
2016-12-05T14:08:50.795Z,1021.75
2016-12-05T14:10:01.786Z,1021.76
2016-12-05T14:11:12.769Z,1021.77
2016-12-05T14:12:23.753Z,1021.81
2016-12-05T14:13:34.786Z,1021.81
2016-12-05T14:14:45.772Z,1021.8
2016-12-05T14:15:56.759Z,1021.84
2016-12-05T14:17:07.759Z,1021.83
2016-12-05T14:18:18.742Z,1021.83
2016-12-05T14:19:29.781Z,1021.82
2016-12-05T14:20:40.768Z,1021.85
2016-12-05T14:21:52.182Z,1021.82
2016-12-05T14:23:03.161Z,1021.82